createdAt,value
2022-10-02T00:01:44.281Z,100444.91
2022-10-02T00:04:16.377Z,100437.38
2022-10-02T00:06:48.655Z,100452.31
2022-10-02T00:09:25.997Z,100457.69
2022-10-02T00:11:58.717Z,100469.22
2022-10-02T00:14:31.283Z,100471.16
2022-10-02T00:17:01.928Z,100469.47
2022-10-02T00:19:29.794Z,100473.06
2022-10-02T00:22:13.178Z,100471.59
2022-10-02T00:24:49.093Z,100468.25
2022-10-02T00:27:32.130Z,100474.44
2022-10-02T00:30:03.242Z,100485.72
2022-10-02T00:32:35.931Z,100473.59
2022-10-02T00:35:36.037Z,100475.38
2022-10-02T00:38:16.464Z,100475.44
2022-10-02T00:41:04.447Z,100456.31
2022-10-02T00:43:41.096Z,100460.63
2022-10-02T00:46:25.932Z,100453.56
2022-10-02T00:49:21.591Z,100445.59
2022-10-02T00:52:02.794Z,100468.25
2022-10-02T00:54:54.968Z,100468.16
2022-10-02T00:57:38.407Z,100476.13
2022-10-02T01:00:10.643Z,100482.22
2022-10-02T01:02:52.720Z,100493.50
2022-10-02T01:05:21.985Z,100490.03
2022-10-02T01:07:53.926Z,100491.66
2022-10-02T01:10:25.417Z,100469.78
2022-10-02T01:12:56.137Z,100465.41
2022-10-02T01:15:29.078Z,100471.44
2022-10-02T01:17:57.703Z,100480.91
2022-10-02T01:20:31.349Z,100479.97
2022-10-02T01:23:06.463Z,100479.91
2022-10-02T01:25:35.998Z,100491.88
2022-10-02T01:28:05.580Z,100476.16
2022-10-02T01:30:36.587Z,100479.75
2022-10-02T01:33:05.699Z,100476.28
2022-10-02T01:35:36.556Z,100480.75
2022-10-02T01:38:08.145Z,100496.34
2022-10-02T01:40:38.958Z,100499.72
2022-10-02T01:43:09.787Z,100501.47
2022-10-02T01:46:02.422Z,100502.94
2022-10-02T01:48:45.664Z,100499.91
2022-10-02T01:51:40.482Z,100512.66
2022-10-02T01:54:18.458Z,100512.66
2022-10-02T01:56:56.786Z,100514.56
2022-10-02T01:59:37.194Z,100501.75
2022-10-02T02:02:14.085Z,100503.34
2022-10-02T02:04:53.391Z,100508.72
2022-10-02T02:07:29.128Z,100509.66
2022-10-02T02:10:03.859Z,100515.72
2022-10-02T02:12:42.224Z,100517.34
2022-10-02T02:15:17.186Z,100520.09
2022-10-02T02:17:51.998Z,100509.66
2022-10-02T02:20:26.023Z,100511.19
2022-10-02T02:22:56.352Z,100517.03
2022-10-02T02:25:29.063Z,100505.97
2022-10-02T02:28:02.588Z,100508.66
2022-10-02T02:30:32.601Z,100509.41
2022-10-02T02:33:05.209Z,100506.69
2022-10-02T02:35:37.799Z,100507.25
2022-10-02T02:38:09.400Z,100503.66
2022-10-02T02:40:40.409Z,100502.38
2022-10-02T02:43:13.817Z,100500.84
2022-10-02T02:45:48.496Z,100496.59
2022-10-02T02:48:21.495Z,100491.47
2022-10-02T02:50:54.753Z,100497.59
2022-10-02T02:53:26.900Z,100492.44
2022-10-02T02:55:59.221Z,100486.38
2022-10-02T02:58:32.729Z,100483.69
2022-10-02T03:01:00.629Z,100495.16
2022-10-02T03:03:28.919Z,100494.38
2022-10-02T03:06:03.773Z,100509.88
2022-10-02T03:08:36.336Z,100509.97
2022-10-02T03:11:15.162Z,100516.72
2022-10-02T03:13:56.351Z,100511.28
2022-10-02T03:16:39.748Z,100507.88
2022-10-02T03:19:25.563Z,100518.28
2022-10-02T03:22:03.387Z,100511.28
2022-10-02T03:24:36.812Z,100506.81
2022-10-02T03:27:10.044Z,100523.25
2022-10-02T03:29:46.044Z,100527.72
2022-10-02T03:32:17.116Z,100530.38
2022-10-02T03:34:45.630Z,100518.94
2022-10-02T03:37:13.593Z,100519.94
2022-10-02T03:39:43.784Z,100515.72
2022-10-02T03:42:14.261Z,100515.88
2022-10-02T03:44:44.846Z,100516.72
2022-10-02T03:47:12.689Z,100517.59
2022-10-02T03:49:40.687Z,100525.41
2022-10-02T03:52:08.663Z,100524.34
2022-10-02T03:54:37.698Z,100533.31
2022-10-02T03:57:08.620Z,100522.81
2022-10-02T03:59:43.880Z,100524.56
2022-10-02T04:02:22.310Z,100526.34
2022-10-02T04:04:55.424Z,100539.41
2022-10-02T04:07:27.140Z,100529.78
2022-10-02T04:10:03.765Z,100535.03
2022-10-02T04:12:37.827Z,100532.41
2022-10-02T04:15:15.854Z,100534.19
2022-10-02T04:17:52.279Z,100528.94
2022-10-02T04:20:26.122Z,100533.31
2022-10-02T04:22:57.427Z,100530.78
2022-10-02T04:25:29.908Z,100530.78
2022-10-02T04:28:01.440Z,100528.16
2022-10-02T04:30:30.082Z,100528.25
2022-10-02T04:33:06.750Z,100526.56
2022-10-02T04:35:40.602Z,100519.41
2022-10-02T04:38:27.599Z,100524.00
2022-10-02T04:41:10.054Z,100516.19
2022-10-02T04:43:49.792Z,100510.38
2022-10-02T04:46:37.611Z,100507.75
2022-10-02T04:49:51.500Z,100510.63
2022-10-02T04:52:52.494Z,100506.31
2022-10-02T04:55:38.764Z,100491.72
2022-10-02T04:58:30.042Z,100499.66
2022-10-02T05:01:06.971Z,100495.28
2022-10-02T05:03:52.562Z,100498.19
2022-10-02T05:06:42.961Z,100497.44
2022-10-02T05:09:17.139Z,100491.41
2022-10-02T05:12:00.856Z,100493.28
2022-10-02T05:14:47.513Z,100490.66
2022-10-02T05:17:28.542Z,100484.66
2022-10-02T05:20:05.277Z,100484.81
2022-10-02T05:22:50.102Z,100477.84
2022-10-02T05:25:56.400Z,100479.59
2022-10-02T05:28:50.679Z,100472.69
2022-10-02T05:31:33.351Z,100460.47
2022-10-02T05:34:14.937Z,100463.03
2022-10-02T05:36:59.501Z,100457.94
2022-10-02T05:39:33.580Z,100458.78
2022-10-02T05:42:09.750Z,100458.03
2022-10-02T05:44:40.133Z,100455.41
2022-10-02T05:47:13.517Z,100453.72
2022-10-02T05:49:44.701Z,100445.94
2022-10-02T05:52:16.861Z,100453.88
2022-10-02T05:54:52.434Z,100453.88
2022-10-02T05:57:27.419Z,100463.47
2022-10-02T06:00:06.147Z,100460.91
2022-10-02T06:02:48.314Z,100459.78
2022-10-02T06:05:21.997Z,100459.00
2022-10-02T06:07:53.751Z,100473.00
2022-10-02T06:10:28.786Z,100466.03
2022-10-02T06:13:05.954Z,100469.00
2022-10-02T06:15:41.090Z,100484.28
2022-10-02T06:18:13.193Z,100477.38
2022-10-02T06:20:47.597Z,100464.16
2022-10-02T06:23:23.304Z,100465.84
2022-10-02T06:25:55.735Z,100460.63
2022-10-02T06:28:30.668Z,100457.88
2022-10-02T06:31:05.799Z,100444.66
2022-10-02T06:33:34.178Z,100451.78
2022-10-02T06:36:27.548Z,100439.59
2022-10-02T06:39:13.628Z,100441.34
2022-10-02T06:41:54.177Z,100452.63
2022-10-02T06:44:30.271Z,100442.19
2022-10-02T06:47:14.563Z,100438.75
2022-10-02T06:49:57.836Z,100444.81
2022-10-02T06:52:37.894Z,100446.66
2022-10-02T06:55:21.260Z,100457.94
2022-10-02T06:58:14.982Z,100458.78
2022-10-02T07:00:50.872Z,100461.31
2022-10-02T07:03:39.769Z,100454.34
2022-10-02T07:06:25.157Z,100451.63
2022-10-02T07:09:29.778Z,100446.50
2022-10-02T07:12:11.054Z,100446.41
2022-10-02T07:14:59.005Z,100446.41
2022-10-02T07:17:52.447Z,100456.84
2022-10-02T07:20:42.059Z,100459.56
2022-10-02T07:23:28.130Z,100437.81
2022-10-02T07:26:11.296Z,100444.81
2022-10-02T07:28:43.478Z,100469.00
2022-10-02T07:31:21.511Z,100469.16
2022-10-02T07:34:05.196Z,100461.31
2022-10-02T07:36:44.979Z,100449.81
2022-10-02T07:39:25.553Z,100461.16
2022-10-02T07:42:07.758Z,100455.94
2022-10-02T07:45:02.467Z,100469.84
2022-10-02T07:47:57.107Z,100462.84
2022-10-02T07:50:35.696Z,100461.16
2022-10-02T07:53:12.252Z,100468.09
2022-10-02T07:55:42.545Z,100475.91
2022-10-02T07:58:15.573Z,100469.78
2022-10-02T08:00:49.323Z,100471.44
2022-10-02T08:03:23.225Z,100454.13
2022-10-02T08:05:54.251Z,100465.31
2022-10-02T08:08:28.938Z,100455.78
2022-10-02T08:11:03.926Z,100452.25
2022-10-02T08:13:37.217Z,100444.13
2022-10-02T08:16:06.099Z,100441.41
2022-10-02T08:18:38.901Z,100442.34
2022-10-02T08:21:13.078Z,100445.97
2022-10-02T08:23:46.878Z,100444.88
2022-10-02T08:26:20.449Z,100447.56
2022-10-02T08:28:57.133Z,100449.19
2022-10-02T08:31:26.405Z,100461.47
2022-10-02T08:33:57.662Z,100450.25
2022-10-02T08:37:05.308Z,100448.28
2022-10-02T08:40:20.339Z,100450.94
2022-10-02T08:43:22.929Z,100435.13
2022-10-02T08:46:48.662Z,100437.50
2022-10-02T08:49:54.918Z,100438.22
2022-10-02T08:52:45.778Z,100438.91
2022-10-02T08:55:50.651Z,100456.44
2022-10-02T08:58:57.975Z,100449.50
2022-10-02T09:02:01.567Z,100447.94
2022-10-02T09:05:03.972Z,100440.19
2022-10-02T09:08:09.361Z,100460.97
2022-10-02T09:11:15.905Z,100453.88
2022-10-02T09:14:14.712Z,100441.84
2022-10-02T09:17:06.147Z,100436.75
2022-10-02T09:19:47.235Z,100443.53
2022-10-02T09:22:40.388Z,100443.28
2022-10-02T09:25:28.196Z,100431.84
2022-10-02T09:28:49.753Z,100428.22
2022-10-02T09:31:55.343Z,100436.81
2022-10-02T09:34:43.886Z,100445.50
2022-10-02T09:37:30.629Z,100452.41
2022-10-02T09:40:36.947Z,100443.72
2022-10-02T09:43:34.682Z,100440.28
2022-10-02T09:46:52.830Z,100447.34
2022-10-02T09:49:47.682Z,100434.13
2022-10-02T09:52:50.291Z,100432.19
2022-10-02T09:55:54.372Z,100432.19
2022-10-02T09:58:56.501Z,100441.03
2022-10-02T10:01:54.188Z,100448.94
2022-10-02T10:05:05.052Z,100450.56
2022-10-02T10:08:11.552Z,100457.78
2022-10-02T10:11:11.453Z,100447.34
2022-10-02T10:14:21.849Z,100449.78
2022-10-02T10:17:22.698Z,100443.81
2022-10-02T10:20:17.795Z,100440.19
2022-10-02T10:23:21.790Z,100447.19
2022-10-02T10:26:26.339Z,100426.97
2022-10-02T10:29:14.631Z,100419.84
2022-10-02T10:32:20.319Z,100437.34
2022-10-02T10:35:21.591Z,100441.72
2022-10-02T10:38:14.758Z,100447.63
2022-10-02T10:41:15.441Z,100442.09
2022-10-02T10:44:22.457Z,100439.94
2022-10-02T10:47:29.299Z,100442.19
2022-10-02T10:50:24.649Z,100446.25
2022-10-02T10:53:14.326Z,100451.06
2022-10-02T10:56:00.118Z,100447.44
2022-10-02T10:58:44.616Z,100444.78
2022-10-02T11:01:18.680Z,100448.41
2022-10-02T11:04:22.025Z,100447.22
2022-10-02T11:07:07.655Z,100448.47
2022-10-02T11:10:18.869Z,100449.06
2022-10-02T11:13:19.539Z,100449.94
2022-10-02T11:16:31.431Z,100454.31
2022-10-02T11:19:30.072Z,100466.78
2022-10-02T11:22:35.435Z,100458.50
2022-10-02T11:25:22.028Z,100461.78
2022-10-02T11:28:28.551Z,100453.25
2022-10-02T11:31:17.497Z,100462.47
2022-10-02T11:34:35.303Z,100462.38
2022-10-02T11:37:24.413Z,100464.31
2022-10-02T11:40:21.917Z,100470.88
2022-10-02T11:43:11.412Z,100472.03
2022-10-02T11:46:06.352Z,100475.44
2022-10-02T11:49:04.113Z,100476.97
2022-10-02T11:51:56.170Z,100469.69
2022-10-02T11:54:45.214Z,100459.41
2022-10-02T11:57:25.025Z,100455.53
2022-10-02T12:00:08.923Z,100460.00
2022-10-02T12:02:47.809Z,100465.06
2022-10-02T12:05:26.233Z,100449.31
2022-10-02T12:08:01.559Z,100449.22
2022-10-02T12:10:47.546Z,100460.94
2022-10-02T12:13:30.961Z,100464.25
2022-10-02T12:16:05.898Z,100447.63
2022-10-02T12:18:46.473Z,100446.13
2022-10-02T12:21:51.559Z,100438.94
2022-10-02T12:24:49.440Z,100443.44
2022-10-02T12:27:29.690Z,100448.84
2022-10-02T12:30:06.491Z,100448.06
2022-10-02T12:33:08.217Z,100447.88
2022-10-02T12:35:48.239Z,100442.41
2022-10-02T12:38:28.105Z,100436.25
2022-10-02T12:41:08.499Z,100449.50
2022-10-02T12:44:04.318Z,100444.34
2022-10-02T12:47:10.318Z,100436.44
2022-10-02T12:49:49.117Z,100446.47
2022-10-02T12:52:44.991Z,100439.91
2022-10-02T12:56:01.446Z,100442.09
2022-10-02T12:58:39.794Z,100435.66
2022-10-02T13:02:07.202Z,100438.19
2022-10-02T13:05:16.761Z,100449.69
2022-10-02T13:08:14.158Z,100455.66
2022-10-02T13:10:48.329Z,100445.97
2022-10-02T13:13:31.607Z,100441.66
2022-10-02T13:16:07.699Z,100457.88
2022-10-02T13:18:55.399Z,100462.84
2022-10-02T13:21:32.361Z,100451.59
2022-10-02T13:24:19.656Z,100453.22
2022-10-02T13:26:57.037Z,100452.97
2022-10-02T13:29:43.000Z,100447.50
2022-10-02T13:32:32.883Z,100443.09
2022-10-02T13:35:25.970Z,100453.53
2022-10-02T13:38:11.525Z,100443.94
2022-10-02T13:40:50.998Z,100449.28
2022-10-02T13:43:42.890Z,100451.88
2022-10-02T13:46:30.005Z,100440.41
2022-10-02T13:49:08.470Z,100449.69
2022-10-02T13:51:47.098Z,100445.38
2022-10-02T13:54:37.035Z,100455.06
2022-10-02T13:57:16.440Z,100448.25
2022-10-02T14:00:03.196Z,100451.88
2022-10-02T14:02:49.658Z,100443.44
2022-10-02T14:05:33.095Z,100448.66
2022-10-02T14:08:33.681Z,100445.88
2022-10-02T14:11:17.115Z,100444.78
2022-10-02T14:14:03.689Z,100438.69
2022-10-02T14:16:45.753Z,100428.09
2022-10-02T14:19:45.816Z,100429.94
2022-10-02T14:22:34.841Z,100436.94
2022-10-02T14:25:22.856Z,100426.41
2022-10-02T14:28:11.324Z,100437.59
2022-10-02T14:30:55.081Z,100435.25
2022-10-02T14:33:35.959Z,100439.06
2022-10-02T14:36:10.891Z,100441.00
2022-10-02T14:38:53.264Z,100439.47
2022-10-02T14:41:48.567Z,100448.31
2022-10-02T14:44:42.200Z,100441.66
2022-10-02T14:47:27.291Z,100446.13
2022-10-02T14:50:13.187Z,100452.38
2022-10-02T14:53:08.818Z,100447.88
2022-10-02T14:56:08.938Z,100460.09
2022-10-02T14:58:49.458Z,100454.88
2022-10-02T15:01:23.191Z,100466.19
2022-10-02T15:04:29.702Z,100463.50
2022-10-02T15:07:08.742Z,100473.28
2022-10-02T15:10:02.495Z,100474.19
2022-10-02T15:12:45.185Z,100474.28
2022-10-02T15:15:18.760Z,100472.69
2022-10-02T15:17:55.165Z,100469.13
2022-10-02T15:20:39.160Z,100475.34
2022-10-02T15:23:12.298Z,100468.38
2022-10-02T15:25:55.362Z,100472.00
2022-10-02T15:28:37.717Z,100476.44
2022-10-02T15:31:17.890Z,100474.69
2022-10-02T15:33:59.337Z,100468.53
2022-10-02T15:37:02.551Z,100479.91
2022-10-02T15:39:58.258Z,100478.25
2022-10-02T15:42:48.121Z,100491.31
2022-10-02T15:45:41.988Z,100488.84
2022-10-02T15:48:37.706Z,100492.31
2022-10-02T15:51:16.257Z,100497.47
2022-10-02T15:53:52.905Z,100488.78
2022-10-02T15:56:43.827Z,100493.16
2022-10-02T15:59:28.105Z,100500.13
2022-10-02T16:02:12.824Z,100496.59
2022-10-02T16:04:53.217Z,100495.75
2022-10-02T16:07:58.933Z,100497.63
2022-10-02T16:10:35.879Z,100498.31
2022-10-02T16:13:44.884Z,100500.25
2022-10-02T16:16:35.214Z,100499.41
2022-10-02T16:19:14.848Z,100503.66
2022-10-02T16:22:01.523Z,100506.44
2022-10-02T16:24:46.565Z,100502.91
2022-10-02T16:27:21.813Z,100504.78
2022-10-02T16:30:05.309Z,100505.78
2022-10-02T16:32:40.754Z,100502.53
2022-10-02T16:35:20.985Z,100514.88
2022-10-02T16:37:59.905Z,100501.34
2022-10-02T16:40:41.032Z,100504.88
2022-10-02T16:43:28.888Z,100513.78
2022-10-02T16:46:06.889Z,100526.94
2022-10-02T16:48:48.639Z,100521.78
2022-10-02T16:51:31.825Z,100522.72
2022-10-02T16:54:13.601Z,100522.81
2022-10-02T16:56:47.837Z,100528.84
2022-10-02T16:59:22.737Z,100528.94
2022-10-02T17:02:16.502Z,100533.47
2022-10-02T17:04:50.065Z,100540.53
2022-10-02T17:07:49.406Z,100547.63
2022-10-02T17:10:32.695Z,100546.00
2022-10-02T17:13:16.911Z,100556.53
2022-10-02T17:16:07.771Z,100553.41
2022-10-02T17:18:41.716Z,100565.00
2022-10-02T17:21:14.601Z,100563.53
2022-10-02T17:23:53.987Z,100569.00
2022-10-02T17:26:31.389Z,100569.00
2022-10-02T17:29:15.298Z,100570.66
2022-10-02T17:31:51.549Z,100580.63
2022-10-02T17:34:24.405Z,100582.19
2022-10-02T17:37:03.825Z,100591.91
2022-10-02T17:39:45.269Z,100586.84
2022-10-02T17:42:23.684Z,100592.13
2022-10-02T17:45:03.978Z,100594.91
2022-10-02T17:47:55.731Z,100598.94
2022-10-02T17:50:51.779Z,100601.50
2022-10-02T17:53:59.831Z,100610.38
2022-10-02T17:56:47.034Z,100621.09
2022-10-02T17:59:30.519Z,100631.53
2022-10-02T18:02:09.437Z,100623.78
2022-10-02T18:04:48.991Z,100627.38
2022-10-02T18:07:31.366Z,100639.66
2022-10-02T18:10:08.572Z,100639.84
2022-10-02T18:12:58.871Z,100641.16
2022-10-02T18:15:35.821Z,100646.59
2022-10-02T18:18:23.498Z,100653.00
2022-10-02T18:21:05.021Z,100658.50
2022-10-02T18:24:00.149Z,100660.41
2022-10-02T18:26:40.766Z,100661.50
2022-10-02T18:29:42.878Z,100666.88
2022-10-02T18:32:27.136Z,100674.09
2022-10-02T18:35:32.172Z,100674.50
2022-10-02T18:38:17.921Z,100672.81
2022-10-02T18:40:55.305Z,100681.66
2022-10-02T18:43:47.571Z,100687.25
2022-10-02T18:46:27.090Z,100701.38
2022-10-02T18:49:08.497Z,100713.03
2022-10-02T18:52:15.833Z,100719.44
2022-10-02T18:54:59.338Z,100721.50
2022-10-02T18:57:43.162Z,100723.41
2022-10-02T19:00:18.682Z,100726.03
2022-10-02T19:03:12.529Z,100720.66
2022-10-02T19:05:44.557Z,100724.13
2022-10-02T19:08:22.517Z,100727.97
2022-10-02T19:10:50.367Z,100734.22
2022-10-02T19:13:27.553Z,100735.69
2022-10-02T19:15:57.895Z,100743.00
2022-10-02T19:18:27.294Z,100751.72
2022-10-02T19:20:59.686Z,100748.53
2022-10-02T19:23:38.254Z,100755.16
2022-10-02T19:26:17.736Z,100755.78
2022-10-02T19:28:50.097Z,100754.31
2022-10-02T19:31:22.986Z,100753.63
2022-10-02T19:33:55.123Z,100761.19
2022-10-02T19:36:27.242Z,100768.78
2022-10-02T19:39:01.472Z,100775.53
2022-10-02T19:41:34.114Z,100778.78
2022-10-02T19:44:06.965Z,100774.88
2022-10-02T19:46:39.438Z,100780.56
2022-10-02T19:49:08.835Z,100780.34
2022-10-02T19:51:45.028Z,100789.84
2022-10-02T19:54:20.380Z,100798.47
2022-10-02T19:56:48.718Z,100799.22
2022-10-02T19:59:19.839Z,100808.81
2022-10-02T20:01:52.304Z,100808.72
2022-10-02T20:04:22.585Z,100812.59
2022-10-02T20:06:53.921Z,100815.38
2022-10-02T20:09:30.755Z,100818.19
2022-10-02T20:12:05.393Z,100817.38
2022-10-02T20:14:40.830Z,100825.47
2022-10-02T20:17:09.943Z,100824.72
2022-10-02T20:19:42.226Z,100828.38
2022-10-02T20:22:18.979Z,100832.84
2022-10-02T20:24:53.506Z,100837.00
2022-10-02T20:27:27.955Z,100833.81
2022-10-02T20:30:01.570Z,100842.53
2022-10-02T20:32:34.063Z,100844.16
2022-10-02T20:35:08.374Z,100855.59
2022-10-02T20:37:37.045Z,100855.44
2022-10-02T20:40:13.793Z,100860.72
2022-10-02T20:42:50.097Z,100861.00
2022-10-02T20:45:18.303Z,100865.25
2022-10-02T20:48:32.681Z,100877.22
2022-10-02T20:51:16.498Z,100882.09
2022-10-02T20:54:28.555Z,100887.56
2022-10-02T20:58:01.179Z,100889.38
2022-10-02T21:00:41.499Z,100893.19
2022-10-02T21:03:31.990Z,100909.34
2022-10-02T21:06:26.302Z,100913.53
2022-10-02T21:09:23.502Z,100922.53
2022-10-02T21:12:28.048Z,100919.16
2022-10-02T21:15:30.909Z,100919.38
2022-10-02T21:18:25.583Z,100923.56
2022-10-02T21:21:29.839Z,100922.56
2022-10-02T21:24:27.944Z,100918.19
2022-10-02T21:27:16.685Z,100920.06
2022-10-02T21:29:58.079Z,100922.81
2022-10-02T21:32:40.323Z,100921.16
2022-10-02T21:35:34.063Z,100936.81
2022-10-02T21:38:28.030Z,100937.13
2022-10-02T21:41:30.685Z,100938.75
2022-10-02T21:44:46.349Z,100936.16
2022-10-02T21:47:40.420Z,100942.31
2022-10-02T21:50:50.623Z,100942.19
2022-10-02T21:53:52.638Z,100942.00
2022-10-02T21:57:03.011Z,100943.97
2022-10-02T21:59:51.994Z,100941.53
2022-10-02T22:02:53.062Z,100951.28
2022-10-02T22:05:54.419Z,100964.47
2022-10-02T22:08:26.837Z,100959.56
2022-10-02T22:11:06.869Z,100961.41
2022-10-02T22:13:37.964Z,100965.66
2022-10-02T22:16:29.807Z,100972.53
2022-10-02T22:19:03.016Z,100974.06
2022-10-02T22:21:49.447Z,100971.31
2022-10-02T22:24:47.775Z,100967.06
2022-10-02T22:27:42.752Z,100973.94
2022-10-02T22:30:23.723Z,100970.97
2022-10-02T22:33:13.690Z,100971.66
2022-10-02T22:36:16.786Z,100985.44
2022-10-02T22:38:49.273Z,100988.94
2022-10-02T22:41:27.478Z,100985.38
2022-10-02T22:43:59.942Z,100991.56
2022-10-02T22:46:41.495Z,101004.69
2022-10-02T22:49:22.282Z,101004.84
2022-10-02T22:52:00.009Z,101003.75
2022-10-02T22:54:39.325Z,101010.59
2022-10-02T22:57:14.982Z,101012.09
2022-10-02T22:59:48.170Z,101012.94
2022-10-02T23:02:28.227Z,101014.47
2022-10-02T23:05:05.261Z,101019.50
2022-10-02T23:07:42.277Z,101022.84
2022-10-02T23:10:23.334Z,101022.63
2022-10-02T23:13:01.106Z,101029.41
2022-10-02T23:15:42.550Z,101029.03
2022-10-02T23:18:20.937Z,101029.78
2022-10-02T23:20:54.875Z,101025.19
2022-10-02T23:23:28.706Z,101014.72
2022-10-02T23:26:06.540Z,101013.16
2022-10-02T23:28:42.043Z,101020.06
2022-10-02T23:31:18.748Z,101016.59
2022-10-02T23:33:56.765Z,101013.31
2022-10-02T23:36:30.073Z,101019.25
2022-10-02T23:39:06.037Z,101028.00
2022-10-02T23:41:47.388Z,101034.00
2022-10-02T23:44:25.515Z,101035.63
2022-10-02T23:47:20.891Z,101030.28
2022-10-02T23:49:53.193Z,101037.91
2022-10-02T23:52:49.180Z,101048.84
2022-10-02T23:55:32.682Z,101047.81
2022-10-02T23:58:26.441Z,101047.69
